sensor_id;sensor_type;location;lat;lon;timestamp;P1;durP1;ratioP1;P2;durP2;ratioP2
72105;SDS011;59975;47.646;18.318;2022-12-07T00:01:07;35.90;;;17.67;;
72105;SDS011;59975;47.646;18.318;2022-12-07T00:03:34;36.63;;;16.93;;
72105;SDS011;59975;47.646;18.318;2022-12-07T00:06:00;35.38;;;18.20;;
72105;SDS011;59975;47.646;18.318;2022-12-07T00:08:27;42.15;;;17.88;;
72105;SDS011;59975;47.646;18.318;2022-12-07T00:10:52;41.28;;;18.65;;
72105;SDS011;59975;47.646;18.318;2022-12-07T00:13:18;33.38;;;17.67;;
72105;SDS011;59975;47.646;18.318;2022-12-07T00:15:43;37.73;;;17.67;;
72105;SDS011;59975;47.646;18.318;2022-12-07T00:18:09;39.22;;;17.98;;
72105;SDS011;59975;47.646;18.318;2022-12-07T00:20:35;37.37;;;18.13;;
72105;SDS011;59975;47.646;18.318;2022-12-07T00:23:00;37.40;;;17.17;;
72105;SDS011;59975;47.646;18.318;2022-12-07T00:25:26;37.30;;;18.50;;
72105;SDS011;59975;47.646;18.318;2022-12-07T00:27:52;33.78;;;16.88;;
72105;SDS011;59975;47.646;18.318;2022-12-07T00:30:20;36.00;;;18.67;;
72105;SDS011;59975;47.646;18.318;2022-12-07T00:32:46;40.47;;;20.13;;
72105;SDS011;59975;47.646;18.318;2022-12-07T00:35:11;38.47;;;18.73;;
72105;SDS011;59975;47.646;18.318;2022-12-07T00:37:37;33.97;;;18.92;;
72105;SDS011;59975;47.646;18.318;2022-12-07T00:40:02;36.10;;;17.67;;
72105;SDS011;59975;47.646;18.318;2022-12-07T00:42:28;35.03;;;16.60;;
72105;SDS011;59975;47.646;18.318;2022-12-07T00:44:54;33.80;;;16.67;;
72105;SDS011;59975;47.646;18.318;2022-12-07T00:47:19;30.63;;;15.50;;
72105;SDS011;59975;47.646;18.318;2022-12-07T00:49:44;30.03;;;16.10;;
72105;SDS011;59975;47.646;18.318;2022-12-07T00:52:10;30.93;;;16.03;;
72105;SDS011;59975;47.646;18.318;2022-12-07T00:54:35;30.83;;;14.05;;
72105;SDS011;59975;47.646;18.318;2022-12-07T00:57:01;28.88;;;14.75;;
72105;SDS011;59975;47.646;18.318;2022-12-07T00:59:26;30.90;;;15.77;;
72105;SDS011;59975;47.646;18.318;2022-12-07T01:01:52;29.63;;;15.10;;
72105;SDS011;59975;47.646;18.318;2022-12-07T01:04:17;28.80;;;15.47;;
72105;SDS011;59975;47.646;18.318;2022-12-07T01:06:42;33.15;;;15.98;;
72105;SDS011;59975;47.646;18.318;2022-12-07T01:09:08;30.07;;;14.93;;
72105;SDS011;59975;47.646;18.318;2022-12-07T01:11:33;28.73;;;15.53;;
72105;SDS011;59975;47.646;18.318;2022-12-07T01:13:59;31.70;;;15.73;;
72105;SDS011;59975;47.646;18.318;2022-12-07T01:16:27;23.52;;;12.63;;
72105;SDS011;59975;47.646;18.318;2022-12-07T01:18:55;28.20;;;13.80;;
72105;SDS011;59975;47.646;18.318;2022-12-07T01:21:28;24.30;;;12.90;;
72105;SDS011;59975;47.646;18.318;2022-12-07T01:23:57;23.95;;;12.60;;
72105;SDS011;59975;47.646;18.318;2022-12-07T01:26:24;24.40;;;12.83;;
72105;SDS011;59975;47.646;18.318;2022-12-07T01:28:51;23.60;;;13.65;;
72105;SDS011;59975;47.646;18.318;2022-12-07T01:31:23;28.08;;;12.95;;
72105;SDS011;59975;47.646;18.318;2022-12-07T01:33:55;23.65;;;13.82;;
72105;SDS011;59975;47.646;18.318;2022-12-07T01:36:26;26.60;;;13.33;;
72105;SDS011;59975;47.646;18.318;2022-12-07T01:38:57;21.58;;;12.13;;
72105;SDS011;59975;47.646;18.318;2022-12-07T01:41:25;24.17;;;11.95;;
72105;SDS011;59975;47.646;18.318;2022-12-07T01:44:10;19.02;;;10.43;;
72105;SDS011;59975;47.646;18.318;2022-12-07T01:46:56;18.90;;;10.48;;
72105;SDS011;59975;47.646;18.318;2022-12-07T01:51:52;16.92;;;9.65;;
72105;SDS011;59975;47.646;18.318;2022-12-07T01:54:42;18.63;;;10.43;;
72105;SDS011;59975;47.646;18.318;2022-12-07T01:57:09;17.90;;;9.55;;
72105;SDS011;59975;47.646;18.318;2022-12-07T01:59:37;18.90;;;10.38;;
72105;SDS011;59975;47.646;18.318;2022-12-07T02:02:04;15.80;;;9.57;;
72105;SDS011;59975;47.646;18.318;2022-12-07T02:04:35;20.15;;;10.65;;
72105;SDS011;59975;47.646;18.318;2022-12-07T02:07:01;23.88;;;10.60;;
72105;SDS011;59975;47.646;18.318;2022-12-07T02:09:28;21.42;;;10.88;;
72105;SDS011;59975;47.646;18.318;2022-12-07T02:11:54;20.40;;;11.60;;
72105;SDS011;59975;47.646;18.318;2022-12-07T02:14:20;20.02;;;10.50;;
72105;SDS011;59975;47.646;18.318;2022-12-07T02:25:10;22.90;;;11.65;;
72105;SDS011;59975;47.646;18.318;2022-12-07T02:28:04;22.40;;;11.05;;
72105;SDS011;59975;47.646;18.318;2022-12-07T02:30:39;20.92;;;11.18;;
72105;SDS011;59975;47.646;18.318;2022-12-07T02:33:16;21.45;;;11.82;;
72105;SDS011;59975;47.646;18.318;2022-12-07T02:36:08;18.88;;;10.93;;
72105;SDS011;59975;47.646;18.318;2022-12-07T02:38:43;25.02;;;11.80;;
72105;SDS011;59975;47.646;18.318;2022-12-07T02:41:20;22.08;;;10.73;;
72105;SDS011;59975;47.646;18.318;2022-12-07T02:43:52;22.35;;;10.88;;
72105;SDS011;59975;47.646;18.318;2022-12-07T02:46:28;24.48;;;11.25;;
72105;SDS011;59975;47.646;18.318;2022-12-07T02:48:56;26.95;;;12.40;;
72105;SDS011;59975;47.646;18.318;2022-12-07T02:51:25;25.48;;;12.13;;
72105;SDS011;59975;47.646;18.318;2022-12-07T02:53:50;25.05;;;12.77;;
72105;SDS011;59975;47.646;18.318;2022-12-07T02:59:29;27.48;;;13.15;;
72105;SDS011;59975;47.646;18.318;2022-12-07T03:07:47;29.60;;;14.57;;
72105;SDS011;59975;47.646;18.318;2022-12-07T03:10:28;26.48;;;13.52;;
72105;SDS011;59975;47.646;18.318;2022-12-07T03:18:55;29.50;;;13.95;;
72105;SDS011;59975;47.646;18.318;2022-12-07T03:21:34;26.08;;;13.90;;
72105;SDS011;59975;47.646;18.318;2022-12-07T03:24:04;26.70;;;13.10;;
72105;SDS011;59975;47.646;18.318;2022-12-07T03:26:35;24.48;;;12.77;;
72105;SDS011;59975;47.646;18.318;2022-12-07T03:29:06;28.98;;;14.43;;
72105;SDS011;59975;47.646;18.318;2022-12-07T03:31:36;27.67;;;14.27;;
72105;SDS011;59975;47.646;18.318;2022-12-07T03:34:08;33.88;;;14.80;;
72105;SDS011;59975;47.646;18.318;2022-12-07T03:36:40;28.42;;;14.35;;
72105;SDS011;59975;47.646;18.318;2022-12-07T03:39:32;30.58;;;14.27;;
72105;SDS011;59975;47.646;18.318;2022-12-07T03:42:02;30.17;;;13.98;;
72105;SDS011;59975;47.646;18.318;2022-12-07T03:44:30;31.95;;;15.45;;
72105;SDS011;59975;47.646;18.318;2022-12-07T03:47:16;35.75;;;15.52;;
72105;SDS011;59975;47.646;18.318;2022-12-07T03:50:02;25.73;;;12.57;;
72105;SDS011;59975;47.646;18.318;2022-12-07T03:58:04;24.42;;;11.77;;
72105;SDS011;59975;47.646;18.318;2022-12-07T04:00:32;24.50;;;13.23;;
72105;SDS011;59975;47.646;18.318;2022-12-07T04:02:58;26.90;;;13.03;;
72105;SDS011;59975;47.646;18.318;2022-12-07T04:05:24;28.98;;;14.63;;
72105;SDS011;59975;47.646;18.318;2022-12-07T04:07:49;30.67;;;14.77;;
72105;SDS011;59975;47.646;18.318;2022-12-07T04:10:15;24.50;;;12.90;;
72105;SDS011;59975;47.646;18.318;2022-12-07T04:12:40;25.30;;;13.73;;
72105;SDS011;59975;47.646;18.318;2022-12-07T04:15:06;25.35;;;12.82;;
72105;SDS011;59975;47.646;18.318;2022-12-07T04:17:32;28.52;;;13.68;;
72105;SDS011;59975;47.646;18.318;2022-12-07T04:19:58;27.08;;;13.63;;
72105;SDS011;59975;47.646;18.318;2022-12-07T04:22:23;23.30;;;12.47;;
72105;SDS011;59975;47.646;18.318;2022-12-07T04:24:49;24.80;;;13.33;;
72105;SDS011;59975;47.646;18.318;2022-12-07T04:27:14;22.20;;;12.07;;
72105;SDS011;59975;47.646;18.318;2022-12-07T04:29:40;23.30;;;12.07;;
72105;SDS011;59975;47.646;18.318;2022-12-07T04:32:05;24.97;;;13.07;;
72105;SDS011;59975;47.646;18.318;2022-12-07T04:34:31;23.67;;;12.20;;
72105;SDS011;59975;47.646;18.318;2022-12-07T04:36:56;23.17;;;12.70;;
72105;SDS011;59975;47.646;18.318;2022-12-07T04:41:47;21.30;;;12.13;;
72105;SDS011;59975;47.646;18.318;2022-12-07T04:44:13;24.67;;;11.97;;
72105;SDS011;59975;47.646;18.318;2022-12-07T04:46:39;27.63;;;12.68;;
72105;SDS011;59975;47.646;18.318;2022-12-07T04:49:05;25.10;;;12.85;;
72105;SDS011;59975;47.646;18.318;2022-12-07T04:51:31;22.37;;;12.80;;
72105;SDS011;59975;47.646;18.318;2022-12-07T04:53:56;24.20;;;13.43;;
72105;SDS011;59975;47.646;18.318;2022-12-07T04:56:22;25.67;;;13.40;;
72105;SDS011;59975;47.646;18.318;2022-12-07T04:58:49;27.00;;;12.53;;
72105;SDS011;59975;47.646;18.318;2022-12-07T05:01:15;26.00;;;13.55;;
72105;SDS011;59975;47.646;18.318;2022-12-07T05:03:42;26.75;;;12.93;;
72105;SDS011;59975;47.646;18.318;2022-12-07T05:06:08;22.77;;;13.38;;
72105;SDS011;59975;47.646;18.318;2022-12-07T05:08:34;21.47;;;11.83;;
72105;SDS011;59975;47.646;18.318;2022-12-07T05:11:00;25.67;;;12.43;;
72105;SDS011;59975;47.646;18.318;2022-12-07T05:13:26;27.08;;;13.73;;
72105;SDS011;59975;47.646;18.318;2022-12-07T05:15:52;23.90;;;12.13;;
72105;SDS011;59975;47.646;18.318;2022-12-07T05:18:17;24.50;;;12.23;;
72105;SDS011;59975;47.646;18.318;2022-12-07T05:20:43;20.35;;;11.23;;
72105;SDS011;59975;47.646;18.318;2022-12-07T05:23:09;25.80;;;13.77;;
72105;SDS011;59975;47.646;18.318;2022-12-07T05:25:34;25.35;;;13.70;;
72105;SDS011;59975;47.646;18.318;2022-12-07T05:28:01;21.27;;;11.73;;
72105;SDS011;59975;47.646;18.318;2022-12-07T05:30:26;23.33;;;12.20;;
72105;SDS011;59975;47.646;18.318;2022-12-07T05:32:52;25.88;;;13.15;;
72105;SDS011;59975;47.646;18.318;2022-12-07T05:35:18;22.67;;;12.70;;
72105;SDS011;59975;47.646;18.318;2022-12-07T05:37:44;21.10;;;11.70;;
72105;SDS011;59975;47.646;18.318;2022-12-07T05:40:10;22.83;;;12.77;;
72105;SDS011;59975;47.646;18.318;2022-12-07T05:42:37;27.65;;;13.70;;
72105;SDS011;59975;47.646;18.318;2022-12-07T05:45:02;26.30;;;13.35;;
72105;SDS011;59975;47.646;18.318;2022-12-07T05:47:28;24.40;;;14.55;;
72105;SDS011;59975;47.646;18.318;2022-12-07T05:49:54;24.63;;;13.60;;
72105;SDS011;59975;47.646;18.318;2022-12-07T05:52:19;26.40;;;14.37;;
72105;SDS011;59975;47.646;18.318;2022-12-07T05:54:45;26.30;;;13.40;;
72105;SDS011;59975;47.646;18.318;2022-12-07T05:57:11;24.53;;;13.37;;
72105;SDS011;59975;47.646;18.318;2022-12-07T05:59:36;27.80;;;13.00;;
72105;SDS011;59975;47.646;18.318;2022-12-07T06:02:06;31.38;;;15.20;;
72105;SDS011;59975;47.646;18.318;2022-12-07T06:04:34;25.67;;;14.48;;
72105;SDS011;59975;47.646;18.318;2022-12-07T06:07:02;29.65;;;14.88;;
72105;SDS011;59975;47.646;18.318;2022-12-07T06:09:29;27.45;;;14.07;;
72105;SDS011;59975;47.646;18.318;2022-12-07T06:11:55;26.83;;;13.98;;
72105;SDS011;59975;47.646;18.318;2022-12-07T06:14:40;28.70;;;13.98;;
72105;SDS011;59975;47.646;18.318;2022-12-07T06:17:05;27.40;;;14.33;;
72105;SDS011;59975;47.646;18.318;2022-12-07T06:19:31;25.85;;;13.43;;
72105;SDS011;59975;47.646;18.318;2022-12-07T06:21:57;29.58;;;14.55;;
72105;SDS011;59975;47.646;18.318;2022-12-07T06:24:23;28.60;;;14.70;;
72105;SDS011;59975;47.646;18.318;2022-12-07T06:26:49;28.95;;;16.02;;
72105;SDS011;59975;47.646;18.318;2022-12-07T06:29:14;30.87;;;15.00;;
72105;SDS011;59975;47.646;18.318;2022-12-07T06:31:41;29.52;;;15.23;;
72105;SDS011;59975;47.646;18.318;2022-12-07T06:34:17;25.35;;;13.82;;
72105;SDS011;59975;47.646;18.318;2022-12-07T06:36:45;24.27;;;13.77;;
72105;SDS011;59975;47.646;18.318;2022-12-07T06:39:16;29.23;;;13.73;;
72105;SDS011;59975;47.646;18.318;2022-12-07T06:41:49;27.00;;;13.93;;
72105;SDS011;59975;47.646;18.318;2022-12-07T06:44:17;29.90;;;14.18;;
72105;SDS011;59975;47.646;18.318;2022-12-07T06:47:03;21.50;;;12.85;;
72105;SDS011;59975;47.646;18.318;2022-12-07T06:49:29;25.45;;;14.00;;
72105;SDS011;59975;47.646;18.318;2022-12-07T06:51:55;32.38;;;14.90;;
72105;SDS011;59975;47.646;18.318;2022-12-07T06:54:21;24.43;;;13.53;;
72105;SDS011;59975;47.646;18.318;2022-12-07T06:56:47;35.55;;;17.83;;
72105;SDS011;59975;47.646;18.318;2022-12-07T06:59:13;35.72;;;18.55;;
72105;SDS011;59975;47.646;18.318;2022-12-07T07:01:39;27.25;;;15.75;;
72105;SDS011;59975;47.646;18.318;2022-12-07T07:04:05;26.88;;;15.73;;
72105;SDS011;59975;47.646;18.318;2022-12-07T07:13:17;32.78;;;15.65;;
72105;SDS011;59975;47.646;18.318;2022-12-07T07:15:45;23.63;;;13.98;;
72105;SDS011;59975;47.646;18.318;2022-12-07T07:18:11;25.83;;;13.50;;
72105;SDS011;59975;47.646;18.318;2022-12-07T07:20:37;28.13;;;14.32;;
72105;SDS011;59975;47.646;18.318;2022-12-07T07:23:03;26.25;;;14.15;;
72105;SDS011;59975;47.646;18.318;2022-12-07T07:25:29;23.40;;;13.37;;
72105;SDS011;59975;47.646;18.318;2022-12-07T07:27:59;23.95;;;13.15;;
72105;SDS011;59975;47.646;18.318;2022-12-07T07:30:24;26.48;;;14.02;;
72105;SDS011;59975;47.646;18.318;2022-12-07T07:32:51;26.55;;;14.75;;
72105;SDS011;59975;47.646;18.318;2022-12-07T07:35:16;31.43;;;17.37;;
72105;SDS011;59975;47.646;18.318;2022-12-07T07:37:42;32.90;;;17.45;;
72105;SDS011;59975;47.646;18.318;2022-12-07T07:40:12;30.48;;;16.27;;
72105;SDS011;59975;47.646;18.318;2022-12-07T07:46:29;37.95;;;19.15;;
72105;SDS011;59975;47.646;18.318;2022-12-07T07:49:50;24.00;;;12.68;;
72105;SDS011;59975;47.646;18.318;2022-12-07T07:55:29;24.45;;;11.75;;
72105;SDS011;59975;47.646;18.318;2022-12-07T07:58:07;22.67;;;11.07;;
72105;SDS011;59975;47.646;18.318;2022-12-07T08:03:57;21.85;;;10.65;;
72105;SDS011;59975;47.646;18.318;2022-12-07T08:10:36;23.75;;;11.85;;
72105;SDS011;59975;47.646;18.318;2022-12-07T08:20:30;21.60;;;10.80;;
72105;SDS011;59975;47.646;18.318;2022-12-07T08:23:04;20.42;;;10.10;;
72105;SDS011;59975;47.646;18.318;2022-12-07T09:19:20;23.48;;;12.13;;
72105;SDS011;59975;47.646;18.318;2022-12-07T09:22:07;22.60;;;11.85;;
72105;SDS011;59975;47.646;18.318;2022-12-07T09:25:03;20.07;;;11.17;;
72105;SDS011;59975;47.646;18.318;2022-12-07T09:27:51;25.25;;;11.23;;
72105;SDS011;59975;47.646;18.318;2022-12-07T09:40:19;14.63;;;7.50;;
72105;SDS011;59975;47.646;18.318;2022-12-07T09:43:17;17.33;;;9.05;;
72105;SDS011;59975;47.646;18.318;2022-12-07T09:45:55;22.73;;;10.75;;
72105;SDS011;59975;47.646;18.318;2022-12-07T09:48:56;15.95;;;8.88;;
72105;SDS011;59975;47.646;18.318;2022-12-07T09:51:32;18.00;;;9.00;;
72105;SDS011;59975;47.646;18.318;2022-12-07T09:54:30;15.67;;;8.47;;
72105;SDS011;59975;47.646;18.318;2022-12-07T10:00:16;16.65;;;8.75;;
72105;SDS011;59975;47.646;18.318;2022-12-07T12:36:48;11.30;;;6.50;;
72105;SDS011;59975;47.646;18.318;2022-12-07T12:39:15;12.00;;;6.35;;
72105;SDS011;59975;47.646;18.318;2022-12-07T12:51:42;14.52;;;6.68;;
72105;SDS011;59975;47.646;18.318;2022-12-07T12:59:42;16.80;;;6.15;;
72105;SDS011;59975;47.646;18.318;2022-12-07T13:02:23;16.37;;;6.47;;
72105;SDS011;59975;47.646;18.318;2022-12-07T13:10:24;14.55;;;6.82;;
72105;SDS011;59975;47.646;18.318;2022-12-07T13:15:44;21.70;;;9.53;;
72105;SDS011;59975;47.646;18.318;2022-12-07T13:26:02;32.17;;;11.30;;
72105;SDS011;59975;47.646;18.318;2022-12-07T13:28:38;20.53;;;9.17;;
72105;SDS011;59975;47.646;18.318;2022-12-07T13:33:53;11.88;;;6.72;;
72105;SDS011;59975;47.646;18.318;2022-12-07T13:36:43;14.77;;;6.63;;
72105;SDS011;59975;47.646;18.318;2022-12-07T13:39:44;16.42;;;6.80;;
72105;SDS011;59975;47.646;18.318;2022-12-07T13:42:06;15.98;;;7.38;;
72105;SDS011;59975;47.646;18.318;2022-12-07T13:44:39;17.95;;;8.27;;
72105;SDS011;59975;47.646;18.318;2022-12-07T13:47:11;13.75;;;7.25;;
72105;SDS011;59975;47.646;18.318;2022-12-07T13:49:49;12.68;;;7.35;;
72105;SDS011;59975;47.646;18.318;2022-12-07T13:57:31;14.75;;;7.00;;
72105;SDS011;59975;47.646;18.318;2022-12-07T14:00:00;13.38;;;6.97;;
72105;SDS011;59975;47.646;18.318;2022-12-07T14:02:29;13.65;;;6.82;;
72105;SDS011;59975;47.646;18.318;2022-12-07T14:05:08;15.82;;;7.20;;
72105;SDS011;59975;47.646;18.318;2022-12-07T14:07:55;18.75;;;7.80;;
72105;SDS011;59975;47.646;18.318;2022-12-07T14:10:34;17.95;;;7.38;;
72105;SDS011;59975;47.646;18.318;2022-12-07T14:13:03;17.80;;;7.35;;
72105;SDS011;59975;47.646;18.318;2022-12-07T14:15:49;17.63;;;7.03;;
72105;SDS011;59975;47.646;18.318;2022-12-07T14:18:24;14.60;;;7.50;;
72105;SDS011;59975;47.646;18.318;2022-12-07T14:21:05;18.92;;;8.45;;
72105;SDS011;59975;47.646;18.318;2022-12-07T14:23:34;14.88;;;7.47;;
72105;SDS011;59975;47.646;18.318;2022-12-07T14:26:06;20.42;;;8.60;;
72105;SDS011;59975;47.646;18.318;2022-12-07T14:28:36;16.95;;;8.00;;
72105;SDS011;59975;47.646;18.318;2022-12-07T14:31:02;19.17;;;8.10;;
72105;SDS011;59975;47.646;18.318;2022-12-07T14:33:28;19.42;;;8.93;;
72105;SDS011;59975;47.646;18.318;2022-12-07T14:35:54;21.10;;;9.97;;
72105;SDS011;59975;47.646;18.318;2022-12-07T14:38:24;21.33;;;10.32;;
72105;SDS011;59975;47.646;18.318;2022-12-07T14:40:51;22.75;;;11.60;;
72105;SDS011;59975;47.646;18.318;2022-12-07T14:43:18;21.13;;;9.48;;
72105;SDS011;59975;47.646;18.318;2022-12-07T14:45:45;16.20;;;7.70;;
72105;SDS011;59975;47.646;18.318;2022-12-07T14:48:11;20.35;;;8.73;;
72105;SDS011;59975;47.646;18.318;2022-12-07T14:50:42;19.92;;;8.50;;
72105;SDS011;59975;47.646;18.318;2022-12-07T14:53:14;18.55;;;8.13;;
72105;SDS011;59975;47.646;18.318;2022-12-07T14:55:42;21.20;;;10.85;;
72105;SDS011;59975;47.646;18.318;2022-12-07T14:58:12;15.00;;;9.17;;
72105;SDS011;59975;47.646;18.318;2022-12-07T15:00:39;17.13;;;8.73;;
72105;SDS011;59975;47.646;18.318;2022-12-07T15:03:05;17.88;;;8.77;;
72105;SDS011;59975;47.646;18.318;2022-12-07T15:05:30;22.05;;;11.30;;
72105;SDS011;59975;47.646;18.318;2022-12-07T15:07:56;29.33;;;13.40;;
72105;SDS011;59975;47.646;18.318;2022-12-07T15:10:26;44.67;;;19.83;;
72105;SDS011;59975;47.646;18.318;2022-12-07T15:12:55;44.10;;;20.48;;
72105;SDS011;59975;47.646;18.318;2022-12-07T15:15:41;40.88;;;18.02;;
72105;SDS011;59975;47.646;18.318;2022-12-07T15:18:06;33.60;;;15.97;;
72105;SDS011;59975;47.646;18.318;2022-12-07T15:20:32;34.10;;;15.82;;
72105;SDS011;59975;47.646;18.318;2022-12-07T15:22:58;24.90;;;12.30;;
72105;SDS011;59975;47.646;18.318;2022-12-07T15:25:23;19.60;;;10.10;;
72105;SDS011;59975;47.646;18.318;2022-12-07T15:27:49;21.58;;;10.38;;
72105;SDS011;59975;47.646;18.318;2022-12-07T15:30:14;18.87;;;8.47;;
72105;SDS011;59975;47.646;18.318;2022-12-07T15:32:40;21.55;;;9.05;;
72105;SDS011;59975;47.646;18.318;2022-12-07T15:35:06;17.60;;;9.03;;
72105;SDS011;59975;47.646;18.318;2022-12-07T15:37:32;17.40;;;8.63;;
72105;SDS011;59975;47.646;18.318;2022-12-07T15:39:58;21.43;;;10.00;;
72105;SDS011;59975;47.646;18.318;2022-12-07T15:42:23;22.55;;;10.65;;
72105;SDS011;59975;47.646;18.318;2022-12-07T15:44:49;25.35;;;10.70;;
72105;SDS011;59975;47.646;18.318;2022-12-07T15:50:03;27.27;;;10.52;;
72105;SDS011;59975;47.646;18.318;2022-12-07T15:52:30;27.67;;;13.30;;
72105;SDS011;59975;47.646;18.318;2022-12-07T15:54:56;27.25;;;15.38;;
72105;SDS011;59975;47.646;18.318;2022-12-07T15:57:22;26.60;;;14.53;;
72105;SDS011;59975;47.646;18.318;2022-12-07T15:59:47;27.38;;;13.05;;
72105;SDS011;59975;47.646;18.318;2022-12-07T16:02:13;23.93;;;12.47;;
72105;SDS011;59975;47.646;18.318;2022-12-07T16:04:38;15.13;;;7.67;;
72105;SDS011;59975;47.646;18.318;2022-12-07T16:07:04;19.35;;;9.25;;
72105;SDS011;59975;47.646;18.318;2022-12-07T16:09:30;21.35;;;7.50;;
72105;SDS011;59975;47.646;18.318;2022-12-07T16:11:56;15.38;;;7.65;;
72105;SDS011;59975;47.646;18.318;2022-12-07T16:14:21;18.57;;;7.67;;
72105;SDS011;59975;47.646;18.318;2022-12-07T16:16:47;19.67;;;9.67;;
72105;SDS011;59975;47.646;18.318;2022-12-07T16:19:12;17.42;;;10.18;;
72105;SDS011;59975;47.646;18.318;2022-12-07T16:21:38;18.47;;;8.30;;
72105;SDS011;59975;47.646;18.318;2022-12-07T16:24:04;16.48;;;7.88;;
72105;SDS011;59975;47.646;18.318;2022-12-07T16:26:30;18.50;;;8.00;;
72105;SDS011;59975;47.646;18.318;2022-12-07T16:28:56;16.57;;;7.20;;
72105;SDS011;59975;47.646;18.318;2022-12-07T16:31:23;23.75;;;8.18;;
72105;SDS011;59975;47.646;18.318;2022-12-07T16:33:50;23.73;;;11.23;;
72105;SDS011;59975;47.646;18.318;2022-12-07T16:36:18;41.70;;;18.35;;
72105;SDS011;59975;47.646;18.318;2022-12-07T16:38:46;25.92;;;11.63;;
72105;SDS011;59975;47.646;18.318;2022-12-07T16:41:11;21.37;;;10.77;;
72105;SDS011;59975;47.646;18.318;2022-12-07T16:43:37;19.17;;;10.00;;
72105;SDS011;59975;47.646;18.318;2022-12-07T16:46:03;31.42;;;14.02;;
72105;SDS011;59975;47.646;18.318;2022-12-07T16:48:29;31.10;;;14.10;;
72105;SDS011;59975;47.646;18.318;2022-12-07T16:50:55;29.25;;;13.02;;
72105;SDS011;59975;47.646;18.318;2022-12-07T16:53:21;29.67;;;15.05;;
72105;SDS011;59975;47.646;18.318;2022-12-07T16:55:50;33.58;;;15.23;;
72105;SDS011;59975;47.646;18.318;2022-12-07T16:58:16;30.63;;;14.17;;
72105;SDS011;59975;47.646;18.318;2022-12-07T17:00:42;37.53;;;16.02;;
72105;SDS011;59975;47.646;18.318;2022-12-07T17:03:09;41.50;;;18.60;;
72105;SDS011;59975;47.646;18.318;2022-12-07T17:05:38;36.07;;;17.17;;
72105;SDS011;59975;47.646;18.318;2022-12-07T17:08:05;44.25;;;18.90;;
72105;SDS011;59975;47.646;18.318;2022-12-07T17:10:32;32.88;;;16.48;;
72105;SDS011;59975;47.646;18.318;2022-12-07T17:13:00;31.40;;;15.48;;
72105;SDS011;59975;47.646;18.318;2022-12-07T17:15:26;32.53;;;16.37;;
72105;SDS011;59975;47.646;18.318;2022-12-07T17:17:54;40.90;;;18.73;;
72105;SDS011;59975;47.646;18.318;2022-12-07T17:20:21;43.53;;;18.40;;
72105;SDS011;59975;47.646;18.318;2022-12-07T17:22:49;31.40;;;16.38;;
72105;SDS011;59975;47.646;18.318;2022-12-07T17:25:15;35.87;;;15.93;;
72105;SDS011;59975;47.646;18.318;2022-12-07T17:27:41;37.55;;;18.17;;
72105;SDS011;59975;47.646;18.318;2022-12-07T17:30:07;36.35;;;16.13;;
72105;SDS011;59975;47.646;18.318;2022-12-07T17:32:33;35.88;;;16.35;;
72105;SDS011;59975;47.646;18.318;2022-12-07T17:34:59;40.97;;;18.13;;
72105;SDS011;59975;47.646;18.318;2022-12-07T17:37:25;34.70;;;16.52;;
72105;SDS011;59975;47.646;18.318;2022-12-07T17:39:52;42.47;;;16.65;;
72105;SDS011;59975;47.646;18.318;2022-12-07T17:42:22;40.40;;;17.20;;
72105;SDS011;59975;47.646;18.318;2022-12-07T17:45:00;39.08;;;16.52;;
72105;SDS011;59975;47.646;18.318;2022-12-07T17:47:27;29.38;;;14.93;;
72105;SDS011;59975;47.646;18.318;2022-12-07T17:49:53;30.05;;;14.30;;
72105;SDS011;59975;47.646;18.318;2022-12-07T17:52:18;27.63;;;12.90;;
72105;SDS011;59975;47.646;18.318;2022-12-07T17:55:04;22.05;;;11.00;;
72105;SDS011;59975;47.646;18.318;2022-12-07T17:57:30;23.77;;;9.85;;
72105;SDS011;59975;47.646;18.318;2022-12-07T17:59:55;27.92;;;10.93;;
72105;SDS011;59975;47.646;18.318;2022-12-07T18:02:21;19.57;;;9.67;;
72105;SDS011;59975;47.646;18.318;2022-12-07T18:04:46;19.77;;;9.85;;
72105;SDS011;59975;47.646;18.318;2022-12-07T18:07:12;18.20;;;9.07;;
72105;SDS011;59975;47.646;18.318;2022-12-07T18:09:38;23.07;;;9.90;;
72105;SDS011;59975;47.646;18.318;2022-12-07T18:12:03;21.60;;;9.57;;
72105;SDS011;59975;47.646;18.318;2022-12-07T18:14:29;24.83;;;10.90;;
72105;SDS011;59975;47.646;18.318;2022-12-07T18:16:55;23.42;;;12.32;;
72105;SDS011;59975;47.646;18.318;2022-12-07T18:19:20;26.87;;;11.80;;
72105;SDS011;59975;47.646;18.318;2022-12-07T18:21:46;28.77;;;11.50;;
72105;SDS011;59975;47.646;18.318;2022-12-07T18:24:13;22.58;;;11.20;;
72105;SDS011;59975;47.646;18.318;2022-12-07T18:26:40;27.13;;;10.63;;
72105;SDS011;59975;47.646;18.318;2022-12-07T18:29:06;30.63;;;12.35;;
72105;SDS011;59975;47.646;18.318;2022-12-07T18:31:32;38.03;;;14.77;;
72105;SDS011;59975;47.646;18.318;2022-12-07T18:34:00;32.38;;;13.68;;
72105;SDS011;59975;47.646;18.318;2022-12-07T18:36:29;36.50;;;16.58;;
72105;SDS011;59975;47.646;18.318;2022-12-07T18:38:55;40.55;;;16.92;;
72105;SDS011;59975;47.646;18.318;2022-12-07T18:41:20;34.77;;;16.97;;
72105;SDS011;59975;47.646;18.318;2022-12-07T18:43:46;43.53;;;16.67;;
72105;SDS011;59975;47.646;18.318;2022-12-07T18:46:12;31.55;;;15.48;;
72105;SDS011;59975;47.646;18.318;2022-12-07T18:48:39;41.38;;;16.17;;
72105;SDS011;59975;47.646;18.318;2022-12-07T18:51:05;38.30;;;17.20;;
72105;SDS011;59975;47.646;18.318;2022-12-07T18:53:32;42.95;;;17.83;;
72105;SDS011;59975;47.646;18.318;2022-12-07T18:56:15;46.63;;;18.38;;
72105;SDS011;59975;47.646;18.318;2022-12-07T18:58:42;37.38;;;14.93;;
72105;SDS011;59975;47.646;18.318;2022-12-07T19:01:28;33.10;;;15.77;;
72105;SDS011;59975;47.646;18.318;2022-12-07T19:03:55;35.20;;;15.68;;
72105;SDS011;59975;47.646;18.318;2022-12-07T19:06:21;40.22;;;17.05;;
72105;SDS011;59975;47.646;18.318;2022-12-07T19:08:47;37.60;;;16.53;;
72105;SDS011;59975;47.646;18.318;2022-12-07T19:11:17;38.35;;;16.27;;
72105;SDS011;59975;47.646;18.318;2022-12-07T19:14:02;38.42;;;16.58;;
72105;SDS011;59975;47.646;18.318;2022-12-07T19:16:27;39.63;;;17.60;;
72105;SDS011;59975;47.646;18.318;2022-12-07T19:18:52;38.43;;;17.30;;
72105;SDS011;59975;47.646;18.318;2022-12-07T19:21:18;41.05;;;18.63;;
72105;SDS011;59975;47.646;18.318;2022-12-07T19:23:43;46.92;;;18.33;;
72105;SDS011;59975;47.646;18.318;2022-12-07T19:26:09;45.33;;;18.40;;
72105;SDS011;59975;47.646;18.318;2022-12-07T19:28:34;35.97;;;17.90;;
72105;SDS011;59975;47.646;18.318;2022-12-07T19:31:04;48.17;;;19.92;;
72105;SDS011;59975;47.646;18.318;2022-12-07T19:33:30;39.90;;;17.33;;
72105;SDS011;59975;47.646;18.318;2022-12-07T19:35:55;47.63;;;19.90;;
72105;SDS011;59975;47.646;18.318;2022-12-07T19:38:21;48.55;;;20.42;;
72105;SDS011;59975;47.646;18.318;2022-12-07T19:40:46;50.10;;;20.03;;
72105;SDS011;59975;47.646;18.318;2022-12-07T19:43:12;51.20;;;20.43;;
72105;SDS011;59975;47.646;18.318;2022-12-07T19:45:37;48.47;;;19.97;;
72105;SDS011;59975;47.646;18.318;2022-12-07T19:48:03;48.63;;;18.95;;